Pickwick Observed Data For Previous 48 Hours

Caption
Day and Hour Reservoir Elevation (behind dam)* Tailwater Elevation (below dam)* Average Hourly Discharge*
5/20/2018 1 AM CDT 413.96 362.89 31,138
5/20/2018 2 AM CDT 413.93 362.33 30,785
5/20/2018 3 AM CDT 413.92 361.94 30,964
5/20/2018 4 AM CDT 413.81 361.71 30,713
5/20/2018 5 AM CDT 413.85 361.56 30,628
5/20/2018 6 AM CDT 413.88 361.43 30,409
5/20/2018 7 AM CDT 413.81 361.40 30,369
5/20/2018 8 AM CDT 413.74 361.26 30,475
5/20/2018 9 AM CDT 413.72 361.20 30,712
5/20/2018 10 AM CDT 413.69 361.20 30,714
5/20/2018 11 AM CDT 413.69 361.21 31,556
5/20/2018 12 PM CDT 413.64 361.97 48,554
5/20/2018 1 PM CDT 413.69 362.48 49,110
5/20/2018 2 PM CDT 413.79 362.66 48,952
5/20/2018 3 PM CDT 413.79 362.74 48,845
5/20/2018 4 PM CDT 413.77 362.90 48,919
5/20/2018 5 PM CDT 413.79 362.89 49,038
5/20/2018 6 PM CDT 413.75 363.00 49,241
5/20/2018 7 PM CDT 413.77 363.00 49,525
5/20/2018 8 PM CDT 413.82 363.06 49,505
5/20/2018 9 PM CDT 413.90 363.05 49,133
5/20/2018 10 PM CDT 413.94 362.35 30,790
5/20/2018 11 PM CDT 413.87 361.78 30,054
5/21/2018 12 AM CDT 413.78 361.54 29,757
5/21/2018 1 AM CDT 413.73 361.36 29,663
5/21/2018 2 AM CDT 413.78 361.24 29,786
5/21/2018 3 AM CDT 413.70 361.19 30,699
5/21/2018 4 AM CDT 413.69 361.98 48,530
5/21/2018 5 AM CDT 413.60 362.53 50,113
5/21/2018 6 AM CDT 413.53 363.23 61,961
5/21/2018 7 AM CDT 413.44 363.77 62,813
5/21/2018 8 AM CDT 413.42 364.05 63,414
5/21/2018 9 AM CDT 413.38 364.24 63,930
5/21/2018 10 AM CDT 413.37 364.36 64,157
5/21/2018 11 AM CDT 413.35 364.42 63,972
5/21/2018 12 PM CDT 413.37 364.56 64,299
5/21/2018 1 PM CDT 413.39 364.59 64,392
5/21/2018 2 PM CDT 413.45 364.67 64,750
5/21/2018 3 PM CDT 413.51 364.72 64,696
5/21/2018 4 PM CDT 413.53 364.77 64,671
5/21/2018 5 PM CDT 413.56 364.88 64,544
5/21/2018 6 PM CDT 413.56 364.86 64,521
5/21/2018 7 PM CDT 413.58 364.86 64,511
5/21/2018 8 PM CDT 413.62 364.86 64,506
5/21/2018 9 PM CDT 413.67 364.92 64,429
5/21/2018 10 PM CDT 413.73 364.35 48,938
5/21/2018 11 PM CDT 413.73 363.96 48,798
5/22/2018 12 AM CDT 413.80 363.20 31,398
5/22/2018 1 AM CDT 413.75 362.50 30,554
5/22/2018 2 AM CDT 413.60 362.03 30,551
5/22/2018 3 AM CDT 413.53 361.78 30,666
5/22/2018 4 AM CDT 413.58 361.57 30,634
5/22/2018 5 AM CDT 413.60 361.41 30,614
5/22/2018 6 AM CDT 413.60 361.28 30,657
5/22/2018 7 AM CDT 413.58 361.22 30,314
5/22/2018 8 AM CDT 413.58 361.11 30,226

Elevations are in feet above sea level. Discharges are in cubic feet per second and are reported at the end of the hour.